Time;durP1;ratioP1;P1;durP2;ratioP2;P2;SDS_P1;SDS_P2;PMS_P1;PMS_P2;Temp;Humidity;BMP_temperature;BMP_pressure;BME280_temperature;BME280_humidity;BME280_pressure;Samples;Min_cycle;Max_cycle;Signal;HPM_P1;HPM_P2
2024/01/24 00:00:11;;;;;;;14.75;7.18;;;;;;;-1.54;73.60;100116.38;4922964;28;20072;-66
2024/01/24 00:02:41;;;;;;;13.20;6.55;;;;;;;-1.52;74.09;100138.63;4903564;28;20105;-65
2024/01/24 00:05:08;;;;;;;12.13;6.05;;;;;;;-1.52;73.73;100130.97;4950578;28;20122;-63
2024/01/24 00:07:38;;;;;;;12.75;6.30;;;;;;;-1.52;73.82;100128.44;4935307;28;20050;-65
2024/01/24 00:10:08;;;;;;;12.55;6.20;;;;;;;-1.51;73.98;100116.53;4933311;28;20047;-63
2024/01/24 00:12:35;;;;;;;13.82;5.20;;;;;;;-1.72;73.71;100062.84;4933736;28;20039;-65
2024/01/24 00:15:01;;;;;;;14.43;6.88;;;;;;;-1.46;73.38;100119.31;4908128;28;20035;-65
2024/01/24 00:17:38;;;;;;;14.93;7.00;;;;;;;-1.39;73.42;100132.41;4921496;28;20081;-65
2024/01/24 00:20:05;;;;;;;11.10;5.72;;;;;;;-1.44;73.76;100122.81;4932299;28;20714;-64
2024/01/24 00:22:35;;;;;;;14.95;6.53;;;;;;;-1.42;73.53;100116.06;4931380;28;20047;-65
2024/01/24 00:25:02;;;;;;;14.57;7.07;;;;;;;-1.48;73.19;100121.75;4937513;28;20058;-64
2024/01/24 00:27:30;;;;;;;12.70;6.28;;;;;;;-1.57;73.95;100109.47;4931223;28;20071;-64
2024/01/24 00:30:08;;;;;;;11.82;5.50;;;;;;;-1.47;74.26;100115.00;4932000;28;20151;-64
2024/01/24 00:32:36;;;;;;;13.25;5.80;;;;;;;-1.67;74.04;100079.25;4920419;28;20059;-64
2024/01/24 00:35:03;;;;;;;12.10;6.05;;;;;;;-1.60;73.96;100080.38;4933978;28;20077;-67
2024/01/24 00:37:30;;;;;;;13.88;6.63;;;;;;;-1.44;73.38;100110.88;4949356;28;20047;-63
2024/01/24 00:39:57;;;;;;;13.23;6.47;;;;;;;-1.48;73.61;100103.91;4930936;28;20039;-64
2024/01/24 00:42:26;;;;;;;11.07;5.75;;;;;;;-1.58;73.51;100084.75;4929436;28;20039;-64
2024/01/24 00:44:52;;;;;;;14.55;6.72;;;;;;;-1.50;73.61;100081.66;4905685;28;20101;-63
2024/01/24 00:47:20;;;;;;;13.05;6.00;;;;;;;-1.48;74.57;100072.41;4934810;28;20042;-64
2024/01/24 00:49:49;;;;;;;13.88;6.38;;;;;;;-1.39;73.83;100078.78;4903799;28;20105;-63
2024/01/24 00:52:21;;;;;;;13.23;6.43;;;;;;;-1.59;73.61;100033.66;4935868;28;20073;-65
2024/01/24 00:54:48;;;;;;;14.77;6.32;;;;;;;-1.29;73.90;100072.41;4936496;28;20039;-66
2024/01/24 00:57:24;;;;;;;12.07;5.03;;;;;;;-1.91;73.60;99956.53;4922258;28;20043;-64
2024/01/24 00:59:51;;;;;;;13.77;7.15;;;;;;;-1.20;73.89;100082.13;4900750;29;20098;-64
2024/01/24 01:02:18;;;;;;;15.57;6.88;;;;;;;-1.37;74.06;100043.09;4918888;29;20044;-63
2024/01/24 01:04:49;;;;;;;15.15;7.20;;;;;;;-1.30;73.58;100055.31;4894195;29;20090;-63
2024/01/24 01:07:18;;;;;;;11.40;6.53;;;;;;;-1.38;73.54;100034.56;4922585;29;20058;-63
2024/01/24 01:09:49;;;;;;;12.75;6.25;;;;;;;-1.33;73.87;100062.00;4934833;29;20107;-63
2024/01/24 01:12:16;;;;;;;10.45;5.68;;;;;;;-1.45;73.71;100030.00;4907158;29;20047;-64
2024/01/24 01:14:42;;;;;;;15.10;6.65;;;;;;;-1.43;73.51;100035.16;4920236;29;20046;-65
2024/01/24 01:17:08;;;;;;;12.77;6.10;;;;;;;-1.45;73.88;100029.16;4921259;29;20103;-64
2024/01/24 01:19:35;;;;;;;15.15;6.95;;;;;;;-1.43;74.39;100022.41;4914204;29;20039;-64
2024/01/24 01:22:01;;;;;;;14.10;6.60;;;;;;;-1.39;74.67;100024.28;4924042;29;20046;-64
2024/01/24 01:24:27;;;;;;;12.80;6.30;;;;;;;-1.28;73.90;100040.06;4900833;29;20043;-64
2024/01/24 01:26:56;;;;;;;16.52;7.00;;;;;;;-1.21;74.39;100042.94;4912719;29;20095;-63
2024/01/24 01:29:23;;;;;;;16.55;6.78;;;;;;;-1.17;73.94;100037.97;4936194;29;20414;-66
2024/01/24 01:31:50;;;;;;;12.63;6.22;;;;;;;-1.19;73.71;100032.81;4906383;29;20094;-65
2024/01/24 01:34:16;;;;;;;12.20;6.35;;;;;;;-1.55;74.07;99998.09;4907081;29;20044;-63
2024/01/24 01:36:44;;;;;;;13.27;6.07;;;;;;;-1.24;74.17;100014.75;4890419;29;20395;-64
2024/01/24 01:39:13;;;;;;;11.50;6.38;;;;;;;-1.22;74.08;100019.91;4935639;29;20047;-63
2024/01/24 01:41:49;;;;;;;15.27;6.70;;;;;;;-1.29;74.33;100013.66;4938738;29;20035;-64
2024/01/24 01:44:19;;;;;;;12.60;6.35;;;;;;;-1.30;73.85;100017.03;4907140;29;20047;-65
2024/01/24 01:46:53;;;;;;;12.68;6.45;;;;;;;-1.20;73.94;100031.06;4901864;29;20040;-65
2024/01/24 01:49:23;;;;;;;11.35;5.72;;;;;;;-1.16;73.81;100026.94;4934523;29;20050;-64
2024/01/24 01:51:51;;;;;;;13.90;6.57;;;;;;;-1.50;74.19;99969.34;4917536;29;20048;-64
2024/01/24 01:54:23;;;;;;;13.45;6.60;;;;;;;-1.21;74.21;100007.19;4934867;29;20050;-62
2024/01/24 01:56:50;;;;;;;15.30;6.40;;;;;;;-1.29;74.41;99983.03;4934539;29;20134;-64
2024/01/24 01:59:18;;;;;;;17.83;7.57;;;;;;;-1.06;74.66;99998.44;4948783;28;20047;-64
2024/01/24 02:01:45;;;;;;;13.27;6.90;;;;;;;-0.97;74.07;100005.59;4935306;28;20058;-63
2024/01/24 02:04:18;;;;;;;13.43;6.93;;;;;;;-1.04;74.21;99999.38;4954288;28;20134;-65
2024/01/24 02:06:47;;;;;;;12.15;5.97;;;;;;;-1.07;74.08;100001.78;4906338;28;20070;-64
2024/01/24 02:09:13;;;;;;;27.27;7.53;;;;;;;-1.11;74.86;99988.03;4934867;28;20066;-65
2024/01/24 02:11:43;;;;;;;13.82;6.70;;;;;;;-1.14;74.12;99979.34;4909348;28;20078;-66
2024/01/24 02:14:13;;;;;;;11.25;5.93;;;;;;;-1.03;74.37;100002.78;4922344;28;20077;-65
2024/01/24 02:16:39;;;;;;;12.63;6.65;;;;;;;-1.02;74.01;100002.88;4950586;28;20461;-63
2024/01/24 02:19:29;;;;;;;14.38;6.60;;;;;;;-1.02;74.42;99991.75;4937962;28;20411;-65
2024/01/24 02:21:55;;;;;;;13.55;6.50;;;;;;;-1.17;74.75;99969.88;4919143;28;20063;-64
2024/01/24 02:24:25;;;;;;;14.48;7.13;;;;;;;-1.08;74.68;99992.38;4938811;28;20047;-64
2024/01/24 02:26:51;;;;;;;14.30;7.47;;;;;;;-1.12;73.72;99982.84;4950412;28;21877;-64
2024/01/24 02:29:26;;;;;;;15.05;6.38;;;;;;;-1.09;74.19;99973.63;4933273;29;20066;-66
2024/01/24 02:32:09;;;;;;;13.30;6.25;;;;;;;-1.04;74.07;99989.16;4951985;28;20494;-65
2024/01/24 02:34:36;;;;;;;13.38;6.43;;;;;;;-1.11;73.71;99994.81;4920816;28;20044;-66
2024/01/24 02:37:04;;;;;;;13.18;6.30;;;;;;;-1.21;74.62;99973.13;4937715;28;20044;-64
2024/01/24 02:39:32;;;;;;;14.23;6.95;;;;;;;-1.12;73.94;99973.50;4941561;28;20097;-63
2024/01/24 02:42:01;;;;;;;14.93;6.95;;;;;;;-1.18;74.40;99963.03;4939902;28;20039;-63
2024/01/24 02:44:30;;;;;;;15.43;7.10;;;;;;;-1.04;75.00;99985.72;4921385;28;20442;-64
2024/01/24 02:46:56;;;;;;;13.45;6.47;;;;;;;-1.15;74.32;99968.28;4927126;28;20039;-61
2024/01/24 02:49:24;;;;;;;12.77;6.65;;;;;;;-1.05;73.73;99984.84;4921500;28;20617;-64
2024/01/24 02:51:51;;;;;;;15.30;6.63;;;;;;;-1.03;74.97;99980.69;4922870;28;20493;-64
2024/01/24 02:54:20;;;;;;;13.95;6.38;;;;;;;-1.05;74.50;99979.75;4911457;28;20607;-66
2024/01/24 02:56:47;;;;;;;16.00;7.43;;;;;;;-1.09;74.28;99965.94;4938518;28;20126;-64
2024/01/24 02:59:13;;;;;;;12.70;6.13;;;;;;;-1.41;74.27;99908.44;4933213;28;20089;-64
2024/01/24 03:01:41;;;;;;;13.57;6.50;;;;;;;-1.13;73.97;99953.88;4950524;28;20135;-64
2024/01/24 03:04:07;;;;;;;17.77;8.38;;;;;;;-1.11;74.46;99966.72;4950743;28;20051;-65
2024/01/24 03:06:33;;;;;;;18.42;7.38;;;;;;;-1.03;74.82;99970.47;4956241;28;20088;-66
2024/01/24 03:08:59;;;;;;;13.73;7.10;;;;;;;-1.01;74.14;99961.19;4924789;28;20039;-64
2024/01/24 03:11:26;;;;;;;12.63;6.20;;;;;;;-1.17;74.81;99920.47;4936569;28;20040;-65
2024/01/24 03:13:55;;;;;;;15.00;6.32;;;;;;;-1.10;74.39;99932.69;4954191;28;20044;-64
2024/01/24 03:16:24;;;;;;;14.18;6.72;;;;;;;-1.25;74.35;99910.84;4951499;28;20052;-64
2024/01/24 03:18:53;;;;;;;12.40;6.28;;;;;;;-0.89;74.67;99965.91;4932474;28;20043;-68
2024/01/24 03:21:20;;;;;;;17.65;7.55;;;;;;;-1.00;74.28;99937.38;4909195;28;20122;-64
2024/01/24 03:23:53;;;;;;;14.05;6.60;;;;;;;-0.93;74.90;99938.47;4933372;28;20039;-64
2024/01/24 03:26:22;;;;;;;12.77;6.15;;;;;;;-1.01;74.38;99914.31;4951766;28;20044;-63
2024/01/24 03:28:49;;;;;;;15.43;6.95;;;;;;;-0.96;74.08;99918.78;4950622;28;20035;-64
2024/01/24 03:31:15;;;;;;;14.38;6.97;;;;;;;-0.87;74.43;99941.25;4936692;28;20110;-64
2024/01/24 03:33:42;;;;;;;15.07;6.95;;;;;;;-0.84;74.32;99932.88;4951928;28;20047;-64
2024/01/24 03:36:08;;;;;;;13.02;6.25;;;;;;;-0.82;74.19;99933.81;4933672;28;20515;-64
2024/01/24 03:38:37;;;;;;;17.38;6.97;;;;;;;-1.01;74.66;99898.97;4933797;28;20043;-64
2024/01/24 03:41:06;;;;;;;14.13;6.50;;;;;;;-0.84;74.26;99923.50;4935361;28;20036;-64
2024/01/24 03:43:33;;;;;;;13.50;7.13;;;;;;;-1.17;74.70;99877.06;4951600;28;20050;-66
2024/01/24 03:46:06;;;;;;;15.70;6.38;;;;;;;-0.81;74.62;99933.84;4919551;28;20142;-66
2024/01/24 03:48:32;;;;;;;12.88;6.05;;;;;;;-0.83;73.96;99939.72;4917195;28;20541;-65
2024/01/24 03:51:02;;;;;;;16.83;7.60;;;;;;;-0.82;74.75;99946.56;4921753;28;20049;-65
2024/01/24 03:53:31;;;;;;;15.68;6.80;;;;;;;-1.07;74.62;99904.72;4934429;28;20094;-64
2024/01/24 03:55:58;;;;;;;14.77;6.82;;;;;;;-0.86;74.60;99927.69;4921121;28;20126;-65
2024/01/24 03:58:24;;;;;;;13.10;6.45;;;;;;;-0.75;74.64;99935.75;4932697;28;20063;-65
2024/01/24 04:00:55;;;;;;;15.80;8.00;;;;;;;-0.79;74.33;99939.03;4906628;28;20035;-66
2024/01/24 04:03:22;;;;;;;16.73;7.32;;;;;;;-0.77;74.34;99935.72;4937108;28;20050;-63
2024/01/24 04:05:48;;;;;;;15.18;7.35;;;;;;;-0.78;74.82;99935.66;4935554;28;20043;-65
2024/01/24 04:08:15;;;;;;;13.85;6.97;;;;;;;-0.86;74.73;99902.13;4920688;28;20110;-63
2024/01/24 04:10:43;;;;;;;14.63;7.82;;;;;;;-0.75;75.01;99922.97;4951549;28;20035;-65
2024/01/24 04:13:10;;;;;;;17.13;8.05;;;;;;;-0.66;74.75;99912.28;4949541;28;20039;-66
2024/01/24 04:15:36;;;;;;;16.90;7.40;;;;;;;-0.94;75.05;99863.50;4901995;28;20502;-65
2024/01/24 04:18:07;;;;;;;18.65;8.45;;;;;;;-0.72;74.39;99882.22;4928383;28;20065;-66
2024/01/24 04:20:38;;;;;;;14.98;7.22;;;;;;;-0.99;75.19;99842.00;4932598;28;20075;-66
2024/01/24 04:23:07;;;;;;;16.00;7.88;;;;;;;-0.74;75.11;99872.75;4921749;28;20043;-66
2024/01/24 04:25:34;;;;;;;17.35;7.65;;;;;;;-0.77;74.37;99873.50;4938831;28;20447;-66
2024/01/24 04:28:00;;;;;;;13.30;6.95;;;;;;;-0.84;75.30;99858.75;4950885;28;20070;-67
2024/01/24 04:30:29;;;;;;;16.85;8.10;;;;;;;-0.92;74.40;99850.81;4905330;28;20054;-66
2024/01/24 04:32:56;;;;;;;17.42;8.32;;;;;;;-0.69;74.88;99884.88;4933851;28;20047;-65
2024/01/24 04:35:22;;;;;;;17.55;7.75;;;;;;;-0.56;74.78;99903.25;4934901;28;20058;-64
2024/01/24 04:37:52;;;;;;;15.07;7.40;;;;;;;-0.55;75.19;99894.78;4949880;28;20043;-64
2024/01/24 04:40:18;;;;;;;18.13;8.35;;;;;;;-0.96;74.56;99825.94;4950374;28;20510;-65
2024/01/24 04:42:45;;;;;;;14.75;8.07;;;;;;;-0.56;74.52;99887.94;4935261;28;20059;-64
2024/01/24 04:45:15;;;;;;;19.42;10.02;;;;;;;-0.49;74.77;99895.00;4936790;29;20069;-64
2024/01/24 04:47:45;;;;;;;17.05;8.20;;;;;;;-0.48;74.80;99896.72;4941379;29;20118;-65
2024/01/24 04:50:13;;;;;;;17.15;7.88;;;;;;;-0.63;74.79;99862.13;4925414;28;20050;-65
2024/01/24 04:52:40;;;;;;;18.55;9.23;;;;;;;-0.92;74.73;99823.56;4924661;28;20090;-64
2024/01/24 04:55:13;;;;;;;17.60;8.10;;;;;;;-0.49;74.70;99880.53;4918482;28;20059;-65
2024/01/24 04:57:41;;;;;;;19.27;9.02;;;;;;;-0.50;74.75;99883.91;4938306;28;20071;-65
2024/01/24 05:00:08;;;;;;;16.50;8.30;;;;;;;-0.79;74.54;99832.56;4915482;29;20052;-65
2024/01/24 05:02:37;;;;;;;19.10;8.02;;;;;;;-0.60;74.82;99861.34;4899208;29;20040;-64
2024/01/24 05:05:07;;;;;;;13.85;6.70;;;;;;;-0.49;75.32;99884.75;4902026;29;20054;-65
2024/01/24 05:07:34;;;;;;;20.92;8.65;;;;;;;-0.48;75.06;99871.16;4903621;29;20043;-65
2024/01/24 05:10:03;;;;;;;16.27;8.07;;;;;;;-0.74;75.28;99826.75;4915688;29;20044;-64
2024/01/24 05:12:32;;;;;;;17.20;8.77;;;;;;;-0.56;75.39;99867.47;4933172;29;20063;-64
2024/01/24 05:14:59;;;;;;;17.52;8.40;;;;;;;-0.63;75.23;99851.00;4900132;29;20570;-66
2024/01/24 05:17:25;;;;;;;15.93;7.90;;;;;;;-0.63;74.48;99857.00;4889687;29;20497;-64
2024/01/24 05:19:51;;;;;;;21.20;9.32;;;;;;;-0.67;75.07;99850.03;4921193;29;20050;-64
2024/01/24 05:22:18;;;;;;;21.88;10.18;;;;;;;-0.45;74.75;99868.72;4912552;29;20050;-64
2024/01/24 05:24:45;;;;;;;18.73;8.52;;;;;;;-0.41;75.10;99872.25;4890850;29;20122;-64
2024/01/24 05:27:12;;;;;;;18.75;8.82;;;;;;;-0.42;75.31;99871.41;4916185;29;20050;-64
2024/01/24 05:29:39;;;;;;;20.13;8.95;;;;;;;-0.37;74.83;99881.78;4921427;29;20074;-64
2024/01/24 05:32:06;;;;;;;18.15;8.23;;;;;;;-0.34;74.57;99877.69;4914825;29;20036;-63
2024/01/24 05:34:35;;;;;;;17.45;8.27;;;;;;;-0.28;75.27;99869.34;4917004;29;20072;-65
2024/01/24 05:37:02;;;;;;;17.55;8.55;;;;;;;-0.34;74.84;99862.34;4917431;29;20063;-64
2024/01/24 05:39:29;;;;;;;19.70;9.10;;;;;;;-0.43;75.03;99838.97;4931984;29;20082;-64
2024/01/24 05:41:59;;;;;;;18.50;8.60;;;;;;;-0.33;74.92;99853.81;4912910;29;20042;-64
2024/01/24 05:44:25;;;;;;;20.92;8.82;;;;;;;-0.43;75.10;99841.53;4918407;29;20106;-65
2024/01/24 05:46:51;;;;;;;19.23;9.13;;;;;;;-0.39;75.34;99845.94;4920578;29;20105;-66
2024/01/24 05:49:20;;;;;;;18.33;9.20;;;;;;;-0.40;75.29;99835.63;4916238;29;20039;-65
2024/01/24 05:51:47;;;;;;;23.98;9.27;;;;;;;-0.38;75.62;99845.13;4917022;29;20118;-64
2024/01/24 05:54:16;;;;;;;16.35;8.82;;;;;;;-0.32;75.10;99853.00;4919570;29;20078;-65
2024/01/24 05:56:42;;;;;;;19.15;8.82;;;;;;;-0.35;75.37;99841.81;4933873;29;20051;-66
2024/01/24 05:59:14;;;;;;;17.80;7.93;;;;;;;-0.25;75.57;99855.78;4916636;28;20538;-64
2024/01/24 06:01:44;;;;;;;20.70;9.43;;;;;;;-0.63;74.67;99795.66;4922229;28;20056;-65
2024/01/24 06:04:11;;;;;;;19.23;9.77;;;;;;;-0.24;75.63;99860.97;4953196;28;20095;-64
2024/01/24 06:06:37;;;;;;;18.73;9.18;;;;;;;-0.27;75.27;99852.31;4952631;28;20082;-65
2024/01/24 06:09:06;;;;;;;19.33;9.52;;;;;;;-0.36;74.95;99833.28;4952352;28;20039;-64
2024/01/24 06:11:41;;;;;;;21.67;10.13;;;;;;;-0.35;74.62;99832.47;4923710;28;20054;-64
2024/01/24 06:14:10;;;;;;;20.48;9.05;;;;;;;-0.26;75.14;99846.38;4918649;28;20043;-64
2024/01/24 06:16:39;;;;;;;22.33;9.18;;;;;;;-0.29;74.79;99842.03;4953182;28;20039;-65
2024/01/24 06:19:06;;;;;;;19.38;8.77;;;;;;;-0.41;74.99;99823.66;4910307;28;20042;-65
2024/01/24 06:21:32;;;;;;;18.13;9.05;;;;;;;-0.44;75.63;99806.53;4935833;28;20047;-63
2024/01/24 06:23:59;;;;;;;16.50;8.65;;;;;;;-0.78;75.31;99746.56;4934732;28;20046;-65
2024/01/24 06:26:31;;;;;;;17.80;8.52;;;;;;;-0.37;75.18;99811.06;4933664;28;20048;-64
2024/01/24 06:28:57;;;;;;;17.65;8.40;;;;;;;-0.61;74.78;99768.47;4957157;28;20094;-65
2024/01/24 06:31:27;;;;;;;17.00;8.88;;;;;;;-0.21;75.39;99815.00;4955726;28;20130;-64
2024/01/24 06:33:56;;;;;;;20.45;9.75;;;;;;;-0.18;75.17;99819.38;4940201;29;20043;-65
2024/01/24 06:36:43;;;;;;;16.35;7.93;;;;;;;-0.12;75.67;99804.25;4938385;28;20067;-63
2024/01/24 06:39:14;;;;;;;20.77;9.07;;;;;;;-0.41;75.17;99754.63;4956428;28;20105;-62
2024/01/24 06:41:44;;;;;;;18.30;8.23;;;;;;;-0.13;75.35;99797.41;4951132;28;20466;-64
2024/01/24 06:44:19;;;;;;;18.48;8.82;;;;;;;-0.30;75.44;99761.00;4951480;28;20047;-63
2024/01/24 06:46:57;;;;;;;21.05;9.38;;;;;;;-0.35;75.50;99744.63;4924353;28;20039;-64
2024/01/24 06:49:46;;;;;;;18.63;8.57;;;;;;;-0.18;75.69;99758.84;4935674;28;20067;-63
2024/01/24 06:52:16;;;;;;;18.48;8.80;;;;;;;-0.05;75.47;99795.09;4949377;28;20460;-63
2024/01/24 06:54:42;;;;;;;19.58;9.40;;;;;;;-0.04;75.61;99794.28;4919233;28;20054;-64
2024/01/24 06:57:12;;;;;;;20.23;9.02;;;;;;;-0.07;75.46;99782.22;4957279;28;20044;-65
2024/01/24 06:59:39;;;;;;;18.33;8.93;;;;;;;-0.04;75.41;99782.34;4908143;28;20062;-67
2024/01/24 07:02:08;;;;;;;19.10;9.65;;;;;;;0.10;75.06;99792.19;4936479;28;20047;-63
2024/01/24 07:04:43;;;;;;;17.38;9.30;;;;;;;0.08;75.36;99779.31;4927325;28;20051;-62
2024/01/24 07:07:25;;;;;;;17.73;8.90;;;;;;;0.12;74.91;99777.72;4935923;28;20043;-63
2024/01/24 07:09:53;;;;;;;20.20;8.77;;;;;;;0.16;75.13;99782.13;4955211;28;20112;-63
2024/01/24 07:12:32;;;;;;;17.90;9.18;;;;;;;0.03;75.77;99752.72;4937693;28;20041;-63
2024/01/24 07:15:07;;;;;;;17.00;8.93;;;;;;;0.33;75.50;99792.06;4937850;28;20788;-65
2024/01/24 07:17:37;;;;;;;16.40;8.57;;;;;;;0.37;75.27;99791.34;4937512;28;20099;-64
2024/01/24 07:20:07;;;;;;;17.73;9.25;;;;;;;0.26;74.94;99765.38;4936864;28;20047;-64
2024/01/24 07:22:33;;;;;;;17.60;8.90;;;;;;;0.38;74.81;99790.50;4952521;28;20032;-63
2024/01/24 07:25:08;;;;;;;15.95;8.65;;;;;;;0.32;75.32;99774.97;4934164;29;20042;-66
2024/01/24 07:27:35;;;;;;;17.55;8.48;;;;;;;0.49;75.51;99775.50;4935991;28;20071;-65
2024/01/24 07:30:04;;;;;;;16.52;8.18;;;;;;;0.44;74.98;99758.28;4939429;28;20111;-64
2024/01/24 07:32:32;;;;;;;17.80;8.80;;;;;;;0.23;75.49;99737.13;4938233;29;20095;-63
2024/01/24 07:35:01;;;;;;;15.90;8.43;;;;;;;0.42;74.88;99761.63;4957331;28;20035;-65
2024/01/24 07:37:31;;;;;;;17.17;8.18;;;;;;;0.33;75.29;99726.38;4937585;28;20050;-66
2024/01/24 07:39:58;;;;;;;15.90;7.97;;;;;;;0.56;74.49;99773.16;4927578;28;20066;-63
2024/01/24 07:42:35;;;;;;;17.15;8.90;;;;;;;0.48;74.89;99756.72;4923522;28;20105;-62
2024/01/24 07:45:10;;;;;;;21.23;9.65;;;;;;;0.15;74.80;99698.50;4927988;28;20046;-63
2024/01/24 07:47:39;;;;;;;17.38;8.73;;;;;;;0.25;75.23;99703.09;4943565;29;20039;-64
2024/01/24 07:50:06;;;;;;;18.13;8.70;;;;;;;0.28;75.38;99699.75;4923517;28;20045;-67
2024/01/24 07:52:37;;;;;;;21.60;9.40;;;;;;;0.39;74.91;99706.09;4942406;29;20075;-68
2024/01/24 07:55:06;;;;;;;17.58;8.63;;;;;;;0.66;75.33;99745.28;4939438;29;20086;-62
2024/01/24 07:57:37;;;;;;;20.17;8.60;;;;;;;0.51;74.85;99717.50;4926011;29;20035;-62
2024/01/24 08:00:08;;;;;;;23.77;8.68;;;;;;;0.73;75.79;99742.09;4938953;28;20086;-63
2024/01/24 08:02:36;;;;;;;17.42;7.78;;;;;;;0.79;74.97;99734.56;4954066;28;20506;-65
2024/01/24 08:05:03;;;;;;;18.55;9.50;;;;;;;0.64;74.71;99718.75;4941617;28;20110;-68
2024/01/24 08:07:33;;;;;;;16.88;9.02;;;;;;;0.74;75.12;99713.09;4957508;28;20054;-64
2024/01/24 08:10:02;;;;;;;20.38;9.60;;;;;;;0.88;75.33;99716.91;4959035;28;20044;-62
2024/01/24 08:12:31;;;;;;;18.15;9.40;;;;;;;0.98;75.30;99719.75;4942854;28;20031;-67
2024/01/24 08:15:00;;;;;;;19.90;9.60;;;;;;;0.93;74.67;99706.78;4940550;28;20093;-64
2024/01/24 08:17:26;;;;;;;17.70;9.35;;;;;;;0.91;75.04;99700.75;4941094;29;20065;-64
2024/01/24 08:19:55;;;;;;;18.85;8.60;;;;;;;1.12;75.07;99718.44;4956080;28;20054;-61
2024/01/24 08:22:22;;;;;;;19.58;9.15;;;;;;;1.08;74.96;99705.50;4941428;28;20051;-63
2024/01/24 08:25:00;;;;;;;18.63;9.88;;;;;;;1.13;75.05;99703.91;4942697;28;20039;-64
2024/01/24 08:27:28;;;;;;;21.05;9.00;;;;;;;1.23;74.84;99713.63;4941065;28;20047;-66
2024/01/24 08:29:59;;;;;;;16.38;8.95;;;;;;;0.74;74.51;99641.38;4927895;28;20148;-61
2024/01/24 08:32:26;;;;;;;14.70;7.85;;;;;;;1.02;75.00;99685.69;4924541;28;20039;-62
2024/01/24 08:34:54;;;;;;;18.88;9.38;;;;;;;1.20;74.65;99710.97;4939119;28;20492;-61
2024/01/24 08:37:24;;;;;;;16.25;8.35;;;;;;;1.15;74.65;99700.59;4955725;28;20071;-61
2024/01/24 08:39:50;;;;;;;16.27;8.40;;;;;;;1.31;74.85;99703.56;4958816;28;20070;-62
2024/01/24 08:42:17;;;;;;;18.08;9.23;;;;;;;1.14;74.55;99654.41;4939411;29;20043;-61
2024/01/24 08:44:43;;;;;;;19.23;9.10;;;;;;;1.23;73.94;99661.47;4955994;28;20509;-62
2024/01/24 08:47:11;;;;;;;16.10;7.70;;;;;;;1.28;74.64;99660.78;4940900;28;20043;-61
2024/01/24 08:49:44;;;;;;;14.43;8.20;;;;;;;1.35;74.39;99661.81;4924754;28;20043;-62
2024/01/24 08:52:14;;;;;;;18.00;8.02;;;;;;;1.44;74.33;99685.09;4928795;28;20042;-61
2024/01/24 08:54:42;;;;;;;15.77;7.57;;;;;;;1.40;74.45;99662.81;4941169;29;20051;-61
2024/01/24 08:57:34;;;;;;;21.05;8.90;;;;;;;1.48;74.54;99671.53;4922334;28;20043;-61
2024/01/24 09:00:00;;;;;;;17.67;8.15;;;;;;;1.50;74.59;99658.78;4940354;28;20533;-63
2024/01/24 09:02:29;;;;;;;15.95;8.38;;;;;;;1.49;73.77;99657.88;4939221;29;20039;-62
2024/01/24 09:04:55;;;;;;;16.15;7.95;;;;;;;1.47;74.58;99645.88;4944414;28;20098;-62
2024/01/24 09:07:30;;;;;;;14.82;8.07;;;;;;;1.47;74.15;99635.59;4955715;28;20110;-63
2024/01/24 09:10:00;;;;;;;15.60;8.32;;;;;;;1.43;74.36;99611.59;4940434;28;20046;-64
2024/01/24 09:13:05;;;;;;;;;;;;;;;1.67;73.93;99641.22;4938812;28;20090;-63
2024/01/24 09:15:39;;;;;;;16.48;8.23;;;;;;;1.51;73.56;99622.03;4956696;28;19918;-62
2024/01/24 09:18:07;;;;;;;15.10;7.82;;;;;;;1.55;73.65;99638.34;4954622;28;20046;-62
2024/01/24 09:20:36;;;;;;;12.95;7.22;;;;;;;1.36;73.10;99627.63;4956310;28;20433;-62
2024/01/24 09:23:03;;;;;;;14.68;7.97;;;;;;;1.29;73.74;99623.16;4957486;28;20062;-62
2024/01/24 09:25:32;;;;;;;16.77;8.45;;;;;;;1.16;73.78;99597.22;4941321;28;20050;-61
2024/01/24 09:28:01;;;;;;;17.13;7.28;;;;;;;1.24;73.43;99624.75;4956566;28;20101;-62
2024/01/24 09:30:45;;;;;;;16.23;8.57;;;;;;;1.14;73.58;99611.69;4958933;28;20050;-62
2024/01/24 09:33:11;;;;;;;16.70;8.18;;;;;;;1.15;73.38;99598.06;4944640;28;20047;-61
2024/01/24 09:35:49;;;;;;;19.95;8.55;;;;;;;1.14;73.55;99583.50;4945240;28;20077;-62
2024/01/24 09:38:15;;;;;;;17.80;7.90;;;;;;;0.89;73.50;99549.56;4959471;28;20142;-62
2024/01/24 09:40:43;;;;;;;14.80;7.05;;;;;;;1.20;73.61;99585.34;4944649;28;20099;-63
2024/01/24 09:43:12;;;;;;;15.88;7.38;;;;;;;1.35;73.57;99590.84;4956537;28;20521;-60
2024/01/24 09:45:51;;;;;;;17.50;8.25;;;;;;;1.35;73.68;99574.63;4963819;28;20502;-61
2024/01/24 09:48:20;;;;;;;11.00;6.55;;;;;;;1.37;73.62;99567.84;4960312;28;20042;-61
2024/01/24 09:50:46;;;;;;;14.07;7.15;;;;;;;1.42;73.30;99568.81;4956075;28;20054;-61
2024/01/24 09:53:36;;;;;;;11.10;6.30;;;;;;;1.50;73.61;99575.00;4942710;28;20047;-61
2024/01/24 09:56:02;;;;;;;10.55;5.95;;;;;;;1.54;73.81;99573.38;4937393;28;20134;-61
2024/01/24 09:58:28;;;;;;;11.07;5.95;;;;;;;1.50;73.41;99567.28;4960719;28;20062;-60
2024/01/24 10:01:10;;;;;;;10.88;5.38;;;;;;;1.35;73.35;99554.97;4926829;28;20035;-62
2024/01/24 10:04:00;;;;;;;10.45;5.72;;;;;;;1.33;73.25;99556.63;4960020;28;20074;-60
2024/01/24 10:06:38;;;;;;;10.32;6.40;;;;;;;1.36;73.90;99550.72;4939238;28;20039;-61
2024/01/24 10:09:09;;;;;;;10.57;5.63;;;;;;;1.41;73.43;99550.81;4926894;28;20067;-59
2024/01/24 10:11:35;;;;;;;13.10;6.38;;;;;;;1.41;73.78;99533.75;4939510;28;20040;-61
2024/01/24 10:14:02;;;;;;;8.70;5.93;;;;;;;1.43;73.54;99524.41;4958329;28;20454;-62
2024/01/24 10:16:28;;;;;;;10.38;5.68;;;;;;;1.44;73.45;99527.81;4959325;28;20065;-61
2024/01/24 10:18:58;;;;;;;9.90;5.20;;;;;;;1.43;73.84;99500.44;4957901;28;20054;-64
2024/01/24 10:21:37;;;;;;;11.95;6.00;;;;;;;1.69;73.65;99524.13;4929661;28;20035;-61
2024/01/24 10:24:05;;;;;;;11.52;5.75;;;;;;;1.72;73.75;99515.63;4956621;28;20047;-61
2024/01/24 10:26:35;;;;;;;11.20;5.95;;;;;;;1.88;73.26;99522.84;4958184;28;20046;-60
2024/01/24 10:29:03;;;;;;;11.23;5.65;;;;;;;1.98;73.65;99518.75;4944035;28;20047;-61
2024/01/24 10:31:30;;;;;;;10.68;5.72;;;;;;;2.07;73.07;99511.28;4925393;28;20100;-62
2024/01/24 10:33:56;;;;;;;13.23;5.50;;;;;;;1.86;73.07;99490.28;4957883;28;20069;-63
2024/01/24 10:36:22;;;;;;;13.57;6.20;;;;;;;1.92;72.93;99514.38;4959553;28;20038;-61
2024/01/24 10:39:03;;;;;;;9.60;5.65;;;;;;;1.74;72.97;99488.31;4955566;28;20051;-62
2024/01/24 10:41:31;;;;;;;9.63;5.30;;;;;;;1.55;73.04;99461.38;4941266;28;20501;-63
2024/01/24 10:44:02;;;;;;;12.98;6.60;;;;;;;1.73;73.16;99492.56;4955364;28;20500;-62
2024/01/24 10:46:29;;;;;;;13.57;5.93;;;;;;;1.77;73.14;99502.06;4955063;28;20134;-63
2024/01/24 10:48:56;;;;;;;10.25;5.93;;;;;;;1.49;72.90;99474.94;4953880;28;20101;-62
2024/01/24 10:51:23;;;;;;;12.52;6.55;;;;;;;1.57;73.26;99493.91;4927626;28;20035;-64
2024/01/24 10:53:52;;;;;;;13.45;6.53;;;;;;;1.56;73.12;99492.19;4937613;28;20039;-61
2024/01/24 10:56:25;;;;;;;13.73;6.47;;;;;;;1.57;73.31;99493.06;4938933;28;20050;-64
2024/01/24 10:58:57;;;;;;;13.63;6.65;;;;;;;1.58;73.37;99494.81;4922237;28;20082;-64
2024/01/24 11:01:23;;;;;;;11.98;6.82;;;;;;;1.43;73.50;99456.84;4938094;28;20103;-63
2024/01/24 11:03:53;;;;;;;15.57;7.35;;;;;;;1.59;72.77;99487.13;4921923;28;20051;-64
2024/01/24 11:06:22;;;;;;;11.07;6.82;;;;;;;1.43;72.73;99470.56;4938075;29;20054;-62
2024/01/24 11:09:23;;;;;;;13.85;6.40;;;;;;;1.46;73.56;99482.56;4956911;28;20039;-63
2024/01/24 11:12:08;;;;;;;12.23;6.68;;;;;;;1.30;73.55;99437.75;4936096;28;20103;-63
2024/01/24 11:14:44;;;;;;;12.05;6.18;;;;;;;1.48;73.34;99463.81;4952081;28;20145;-63
2024/01/24 11:17:10;;;;;;;10.60;5.97;;;;;;;1.41;72.88;99467.09;4924447;28;20176;-63
2024/01/24 11:19:37;;;;;;;11.43;6.15;;;;;;;1.40;73.56;99473.03;4953852;28;20039;-64
2024/01/24 11:22:10;;;;;;;11.45;6.18;;;;;;;1.35;73.38;99472.06;4937786;28;20181;-65
2024/01/24 11:24:46;;;;;;;11.95;6.47;;;;;;;1.31;73.61;99468.56;4942346;28;20046;-63
2024/01/24 11:27:35;;;;;;;14.25;5.70;;;;;;;1.28;73.74;99470.19;4938631;28;20102;-62
2024/01/24 11:30:17;;;;;;;15.05;6.78;;;;;;;1.24;73.68;99468.38;4955411;28;20039;-62
2024/01/24 11:35:38;;;;;;;10.85;6.18;;;;;;;1.16;73.82;99445.13;4955751;28;20474;-64
2024/01/24 11:38:29;;;;;;;13.18;5.97;;;;;;;1.17;73.41;99459.66;4924987;29;20098;-64
2024/01/24 11:41:10;;;;;;;12.77;6.63;;;;;;;1.15;74.17;99454.53;4954491;28;20063;-62